Time;durP1;ratioP1;P1;durP2;ratioP2;P2;SDS_P1;SDS_P2;PMS_P1;PMS_P2;Temp;Humidity;BMP_temperature;BMP_pressure;BME280_temperature;BME280_humidity;BME280_pressure;Samples;Min_cycle;Max_cycle;Signal;HPM_P1;HPM_P2
2021/05/03 05:01:34;;;;;;;11.45;3.80;;;;;;;-142.70;100.00;60390.16;5176681;24;20151;-75
2021/05/03 05:03:59;;;;;;;10.20;3.80;;;;;;;-142.70;100.00;60390.16;4706365;30;20128;-75
2021/05/03 05:06:25;;;;;;;8.90;3.33;;;;;;;-142.70;100.00;60390.16;4713679;30;20487;-77
2021/05/03 05:08:50;;;;;;;7.82;3.92;;;;;;;-142.70;100.00;60390.16;4712347;30;20499;-75
2021/05/03 05:11:16;;;;;;;8.90;3.13;;;;;;;-142.70;100.00;60390.16;4714350;30;20033;-75
2021/05/03 05:13:41;;;;;;;9.57;3.80;;;;;;;-142.70;100.00;60390.16;4713431;30;20037;-77
2021/05/03 05:16:07;;;;;;;12.77;5.43;;;;;;;-142.70;100.00;60390.16;4713769;30;20040;-78
2021/05/03 05:18:32;;;;;;;13.65;6.97;;;;;;;-142.70;100.00;60390.16;4714040;30;20021;-77
2021/05/03 05:20:58;;;;;;;16.02;9.00;;;;;;;-142.70;100.00;60390.16;4712957;30;20033;-78
2021/05/03 05:23:24;;;;;;;16.75;8.20;;;;;;;-142.70;100.00;60390.16;4699521;30;20029;-78
2021/05/03 05:25:49;;;;;;;26.35;8.75;;;;;;;-142.70;100.00;60390.16;4712563;30;20054;-78
2021/05/03 05:28:15;;;;;;;12.20;7.38;;;;;;;-142.70;100.00;60390.16;4699592;30;20068;-78
2021/05/03 05:30:40;;;;;;;10.75;6.40;;;;;;;-142.70;100.00;60390.16;4684106;30;20065;-75
2021/05/03 05:33:06;;;;;;;12.18;7.00;;;;;;;-142.70;100.00;60390.16;4729455;30;20037;-77
2021/05/03 05:35:31;;;;;;;15.38;7.50;;;;;;;-142.70;100.00;60390.16;4699550;30;20503;-75
2021/05/03 05:37:56;;;;;;;17.42;8.25;;;;;;;-142.70;100.00;60390.16;4690169;30;20025;-77
2021/05/03 05:40:22;;;;;;;15.88;7.88;;;;;;;-142.70;100.00;60390.16;4704799;30;20049;-77
2021/05/03 05:42:47;;;;;;;16.08;7.13;;;;;;;-142.70;100.00;60390.16;4701727;30;20190;-78
2021/05/03 05:45:14;;;;;;;12.40;6.15;;;;;;;-142.70;100.00;60390.16;4707846;30;20032;-75
2021/05/03 05:47:39;;;;;;;14.20;6.15;;;;;;;-142.70;100.00;60390.16;4708617;30;20125;-77
2021/05/03 05:50:05;;;;;;;11.95;4.72;;;;;;;-142.70;100.00;60390.16;4682588;30;20662;-78
2021/05/03 05:52:31;;;;;;;14.00;5.15;;;;;;;-142.70;100.00;60390.16;4695697;30;20503;-78
2021/05/03 05:54:56;;;;;;;10.82;5.30;;;;;;;-142.70;100.00;60390.16;4682836;30;20036;-74
2021/05/03 05:57:22;;;;;;;9.63;4.65;;;;;;;-142.70;100.00;60390.16;4687391;30;20045;-74
2021/05/03 05:59:47;;;;;;;13.43;4.97;;;;;;;-142.70;100.00;60390.16;4701781;30;20106;-77
2021/05/03 06:02:13;;;;;;;11.02;4.43;;;;;;;-142.70;100.00;60390.16;4718636;30;20055;-75
2021/05/03 06:04:38;;;;;;;7.82;3.33;;;;;;;-142.70;100.00;60390.16;4719539;30;20114;-75
2021/05/03 06:07:03;;;;;;;9.57;2.88;;;;;;;-142.70;100.00;60390.16;4705230;30;20473;-75
2021/05/03 06:09:29;;;;;;;7.43;3.75;;;;;;;-142.70;100.00;60390.16;4714194;30;20423;-74
2021/05/03 06:11:54;;;;;;;6.00;2.80;;;;;;;-142.70;100.00;60390.16;4726383;30;20036;-72
2021/05/03 06:14:20;;;;;;;11.75;3.22;;;;;;;-142.70;100.00;60390.16;4719694;30;20051;-77
2021/05/03 06:16:45;;;;;;;6.75;2.83;;;;;;;-142.70;100.00;60390.16;4712378;30;20033;-77
2021/05/03 06:19:11;;;;;;;11.00;2.53;;;;;;;-142.70;100.00;60390.16;4730030;30;20506;-76
2021/05/03 06:21:36;;;;;;;7.35;2.80;;;;;;;-142.70;100.00;60390.16;4729597;30;20072;-77
2021/05/03 06:24:02;;;;;;;5.95;2.75;;;;;;;-142.70;100.00;60390.16;4731533;30;20488;-77
2021/05/03 06:26:27;;;;;;;8.02;2.42;;;;;;;-142.70;100.00;60390.16;4714410;30;20047;-77
2021/05/03 06:28:53;;;;;;;5.90;2.17;;;;;;;-142.70;100.00;60390.16;4716827;30;20419;-78
2021/05/03 06:31:20;;;;;;;10.10;2.83;;;;;;;-142.70;100.00;60390.16;4715533;30;20089;-75
2021/05/03 06:33:46;;;;;;;5.35;2.50;;;;;;;-142.70;100.00;60390.16;4735235;30;20028;-74
2021/05/03 06:36:11;;;;;;;29.50;2.75;;;;;;;-142.70;100.00;60390.16;4725267;30;20036;-77
2021/05/03 06:38:37;;;;;;;10.68;4.28;;;;;;;-142.70;100.00;60390.16;4700298;30;20028;-77
2021/05/03 06:41:02;;;;;;;6.32;3.88;;;;;;;-142.70;100.00;60390.16;4716614;30;20041;-76
2021/05/03 06:43:28;;;;;;;7.03;2.08;;;;;;;-142.70;100.00;60390.16;4730977;30;20830;-80
2021/05/03 06:45:55;;;;;;;3.53;2.10;;;;;;;-142.70;100.00;60390.16;4717043;30;20064;-78
2021/05/03 06:48:20;;;;;;;5.53;2.30;;;;;;;-142.70;100.00;60390.16;4714899;30;20036;-80
2021/05/03 06:50:46;;;;;;;9.20;3.60;;;;;;;-142.70;100.00;60390.16;4716263;30;20033;-82
2021/05/03 06:53:12;;;;;;;6.15;2.50;;;;;;;-142.70;100.00;60390.16;4716079;30;20037;-79
2021/05/03 06:55:38;;;;;;;5.00;2.40;;;;;;;-142.70;100.00;60390.16;4715270;30;20029;-80
2021/05/03 06:58:03;;;;;;;9.13;2.50;;;;;;;-142.70;100.00;60390.16;4731661;30;20108;-82
2021/05/03 07:00:29;;;;;;;8.25;3.70;;;;;;;-142.70;100.00;60390.16;4719449;30;20036;-82
2021/05/03 07:02:55;;;;;;;8.15;3.60;;;;;;;-142.70;100.00;60390.16;4700026;30;20028;-80
2021/05/03 07:05:20;;;;;;;10.15;3.20;;;;;;;-142.70;100.00;60390.16;4737538;30;20047;-80
2021/05/03 07:07:46;;;;;;;5.28;2.50;;;;;;;-142.70;100.00;60390.16;4717181;30;20033;-78
2021/05/03 07:10:13;;;;;;;3.97;2.17;;;;;;;-142.70;100.00;60390.16;4709157;30;20087;-80
2021/05/03 07:12:48;;;;;;;5.68;2.30;;;;;;;-142.70;100.00;60390.16;4704357;30;20036;-78
2021/05/03 07:15:14;;;;;;;6.78;2.20;;;;;;;-142.70;100.00;60390.16;4702947;30;20040;-82
2021/05/03 07:17:40;;;;;;;5.28;2.00;;;;;;;-142.70;100.00;60390.16;4703608;30;20267;-83
2021/05/03 07:20:08;;;;;;;7.78;1.92;;;;;;;-142.70;100.00;60390.16;4713372;30;20566;-79
2021/05/03 07:22:33;;;;;;;5.90;2.13;;;;;;;-142.70;100.00;60390.16;4708994;30;20047;-81
2021/05/03 07:25:00;;;;;;;5.90;2.00;;;;;;;-142.70;100.00;60390.16;4723781;30;20028;-80
2021/05/03 07:27:26;;;;;;;3.75;2.15;;;;;;;-142.70;100.00;60390.16;4712585;30;20119;-84
2021/05/03 07:29:51;;;;;;;6.05;1.88;;;;;;;-142.70;100.00;60390.16;4695293;30;20106;-81
2021/05/03 07:32:17;;;;;;;5.15;2.10;;;;;;;-142.70;100.00;60390.16;4698436;30;20040;-79
2021/05/03 07:34:42;;;;;;;4.70;2.28;;;;;;;-142.70;100.00;60390.16;4721066;30;20456;-81
2021/05/03 07:37:08;;;;;;;9.55;2.38;;;;;;;-142.70;100.00;60390.16;4705459;30;20044;-81
2021/05/03 07:39:34;;;;;;;5.03;2.47;;;;;;;-142.70;100.00;60390.16;4717087;30;20498;-79
2021/05/03 07:41:59;;;;;;;6.75;2.20;;;;;;;-142.70;100.00;60390.16;4692447;30;20031;-80
2021/05/03 07:44:25;;;;;;;4.32;2.22;;;;;;;-142.70;100.00;60390.16;4694473;30;20024;-80
2021/05/03 07:46:51;;;;;;;8.95;3.10;;;;;;;-142.70;100.00;60390.16;4715320;30;20121;-80
2021/05/03 07:49:17;;;;;;;6.28;2.63;;;;;;;-142.70;100.00;60390.16;4708904;30;20487;-81
2021/05/03 07:51:42;;;;;;;5.80;1.77;;;;;;;-142.70;100.00;60390.16;4701130;30;20229;-81
2021/05/03 07:54:08;;;;;;;9.55;2.35;;;;;;;-142.70;100.00;60390.16;4720654;30;20491;-80
2021/05/03 07:56:33;;;;;;;7.43;2.30;;;;;;;-142.70;100.00;60390.16;4706168;30;20511;-82
2021/05/03 07:58:59;;;;;;;4.18;2.33;;;;;;;-142.70;100.00;60390.16;4724743;30;20067;-82
2021/05/03 08:01:24;;;;;;;8.85;2.75;;;;;;;-142.70;100.00;60390.16;4691236;30;20581;-78
2021/05/03 08:03:50;;;;;;;9.60;2.40;;;;;;;-142.70;100.00;60390.16;4706582;30;20048;-80
2021/05/03 08:06:15;;;;;;;4.78;2.63;;;;;;;-142.70;100.00;60390.16;4688487;30;20056;-81
2021/05/03 08:08:42;;;;;;;5.25;2.40;;;;;;;-142.70;100.00;60390.16;4684929;30;20672;-80
2021/05/03 08:11:07;;;;;;;6.05;1.90;;;;;;;-142.70;100.00;60390.16;4692074;30;20041;-81
2021/05/03 08:13:33;;;;;;;4.22;1.90;;;;;;;-142.70;100.00;60390.16;4691787;30;20507;-81
2021/05/03 08:16:02;;;;;;;4.80;1.95;;;;;;;-142.70;100.00;60390.16;4679160;30;20126;-81
2021/05/03 08:18:28;;;;;;;3.97;2.63;;;;;;;-142.70;100.00;60390.16;4709248;30;20041;-82
2021/05/03 08:20:57;;;;;;;4.53;2.40;;;;;;;-142.70;100.00;60390.16;4690709;30;20138;-83
2021/05/03 08:23:23;;;;;;;5.53;2.65;;;;;;;-142.70;100.00;60390.16;4682481;30;20131;-79
2021/05/03 08:25:53;;;;;;;5.40;2.42;;;;;;;-142.70;100.00;60390.16;4697382;30;20079;-81
2021/05/03 08:28:18;;;;;;;4.07;2.10;;;;;;;-142.70;100.00;60390.16;4697042;30;20067;-82
2021/05/03 08:30:44;;;;;;;2.55;1.60;;;;;;;-142.70;100.00;60390.16;4686399;30;20415;-82
2021/05/03 08:33:10;;;;;;;4.72;2.40;;;;;;;-142.70;100.00;60390.16;4700157;30;20036;-81
2021/05/03 08:35:35;;;;;;;6.50;2.05;;;;;;;-142.70;100.00;60390.16;4684388;30;20041;-83
2021/05/03 08:38:01;;;;;;;4.38;1.73;;;;;;;-142.70;100.00;60390.16;4697555;30;20068;-81
2021/05/03 08:40:27;;;;;;;8.35;2.35;;;;;;;-142.70;100.00;60390.16;4681348;30;20050;-81
2021/05/03 08:42:54;;;;;;;6.10;2.30;;;;;;;-142.70;100.00;60390.16;4682075;30;20037;-80
2021/05/03 08:45:20;;;;;;;5.25;1.95;;;;;;;-142.70;100.00;60390.16;4701040;30;20403;-81
2021/05/03 08:51:08;;;;;;;5.72;2.15;;;;;;;-142.70;100.00;60390.16;4715927;30;20048;-80
2021/05/03 08:53:39;;;;;;;5.50;1.73;;;;;;;-142.70;100.00;60390.16;4701910;30;20043;-84
2021/05/03 08:56:05;;;;;;;5.35;1.92;;;;;;;-142.70;100.00;60390.16;4715220;30;20123;-83
2021/05/03 08:58:30;;;;;;;2.33;1.50;;;;;;;-142.70;100.00;60390.16;4713630;30;20039;-80
2021/05/03 09:00:56;;;;;;;3.22;2.40;;;;;;;-142.70;100.00;60390.16;4711133;30;20511;-82
2021/05/03 09:03:21;;;;;;;4.85;2.13;;;;;;;-142.70;100.00;60390.16;4714395;30;20033;-83
2021/05/03 09:05:47;;;;;;;3.78;2.00;;;;;;;-142.70;100.00;60390.16;4713109;30;20116;-82
2021/05/03 09:08:22;;;;;;;4.38;1.73;;;;;;;-142.70;100.00;60390.16;4696536;30;20030;-80
2021/05/03 09:10:47;;;;;;;6.72;2.05;;;;;;;-142.70;100.00;60390.16;4684800;30;20045;-81
2021/05/03 09:13:13;;;;;;;4.03;1.75;;;;;;;-142.70;100.00;60390.16;4697469;30;20129;-85
2021/05/03 09:15:39;;;;;;;8.73;2.22;;;;;;;-142.70;100.00;60390.16;4707735;30;20041;-83
2021/05/03 09:18:05;;;;;;;4.88;2.17;;;;;;;-142.70;100.00;60390.16;4713586;30;20048;-82
2021/05/03 09:20:31;;;;;;;6.28;2.13;;;;;;;-142.70;100.00;60390.16;4721817;30;20079;-84
2021/05/03 09:25:30;;;;;;;2.90;1.70;;;;;;;-142.70;100.00;60390.16;4699743;30;20510;-85
2021/05/03 09:28:11;;;;;;;3.45;2.10;;;;;;;-142.70;100.00;60390.16;4698441;30;20119;-85
2021/05/03 09:31:04;;;;;;;7.78;2.40;;;;;;;-142.70;100.00;60390.16;4714101;30;20513;-85
2021/05/03 09:33:38;;;;;;;3.65;2.30;;;;;;;-142.70;100.00;60390.16;4700676;30;20041;-80
2021/05/03 09:36:03;;;;;;;9.82;2.60;;;;;;;-142.70;100.00;60390.16;4684912;30;20273;-83
2021/05/03 09:38:39;;;;;;;6.43;2.55;;;;;;;-142.70;100.00;60390.16;4729903;30;20112;-82
2021/05/03 09:41:18;;;;;;;4.28;2.10;;;;;;;-142.70;100.00;60390.16;4695079;30;20072;-82
2021/05/03 09:44:05;;;;;;;;;;;;;;;-142.70;100.00;60390.16;4684155;30;20056;-81
2021/05/03 09:46:40;;;;;;;7.57;2.35;;;;;;;-142.70;100.00;60390.16;4696172;30;19926;-79
2021/05/03 09:49:19;;;;;;;4.95;2.00;;;;;;;-142.70;100.00;60390.16;4695064;30;20060;-78
2021/05/03 09:51:51;;;;;;;4.53;2.22;;;;;;;-142.70;100.00;60390.16;4696550;30;20503;-80
2021/05/03 09:54:20;;;;;;;5.32;2.25;;;;;;;-142.70;100.00;60390.16;4698495;30;20040;-81
2021/05/03 09:57:05;;;;;;;5.73;2.17;;;;;;;-142.70;100.00;60390.16;4700099;30;20400;-81
2021/05/03 09:59:34;;;;;;;6.80;1.88;;;;;;;-142.70;100.00;60390.16;4701427;30;20295;-80
2021/05/03 10:02:02;;;;;;;3.20;2.00;;;;;;;-142.70;100.00;60390.16;4710286;30;20056;-81
2021/05/03 10:04:28;;;;;;;3.90;2.13;;;;;;;-142.70;100.00;60390.16;4717090;30;20051;-81
2021/05/03 10:06:54;;;;;;;3.60;2.05;;;;;;;-142.70;100.00;60390.16;4701166;30;20040;-80
2021/05/03 10:09:19;;;;;;;3.50;1.90;;;;;;;-142.70;100.00;60390.16;4702562;30;20035;-81
2021/05/03 10:11:45;;;;;;;6.32;2.10;;;;;;;-142.70;100.00;60390.16;4686955;30;20032;-81
2021/05/03 10:14:10;;;;;;;4.72;1.85;;;;;;;-142.70;100.00;60390.16;4692812;30;20040;-80
2021/05/03 10:16:37;;;;;;;3.65;1.88;;;;;;;-142.70;100.00;60390.16;4696858;30;20036;-81
2021/05/03 10:19:02;;;;;;;4.35;2.10;;;;;;;-142.70;100.00;60390.16;4708163;30;20035;-80
2021/05/03 10:21:28;;;;;;;3.53;2.05;;;;;;;-142.70;100.00;60390.16;4687817;30;20450;-81
2021/05/03 10:23:53;;;;;;;5.53;2.17;;;;;;;-142.70;100.00;60390.16;4686340;30;20052;-81
2021/05/03 10:26:19;;;;;;;3.35;1.88;;;;;;;-142.70;100.00;60390.16;4690029;30;20041;-82
2021/05/03 10:28:57;;;;;;;3.17;1.83;;;;;;;-142.70;100.00;60390.16;4709926;30;20572;-81
2021/05/03 10:31:23;;;;;;;4.70;1.98;;;;;;;-142.70;100.00;60390.16;4697734;30;20025;-81
2021/05/03 10:33:49;;;;;;;5.90;2.05;;;;;;;-142.70;100.00;60390.16;4718696;30;20448;-81
2021/05/03 10:36:34;;;;;;;6.07;2.05;;;;;;;-142.70;100.00;60390.16;4718444;30;20051;-81
2021/05/03 10:39:01;;;;;;;4.35;2.17;;;;;;;-142.70;100.00;60390.16;4687974;30;20092;-82
2021/05/03 10:41:33;;;;;;;4.72;1.90;;;;;;;-142.70;100.00;60390.16;4700201;30;20044;-82
2021/05/03 10:44:17;;;;;;;9.25;2.67;;;;;;;-142.70;100.00;60390.16;4702861;30;20518;-82
2021/05/03 10:49:17;;;;;;;2.85;1.80;;;;;;;-142.70;100.00;60390.16;4711471;30;20434;-81
2021/05/03 10:51:47;;;;;;;5.72;2.33;;;;;;;-142.70;100.00;60390.16;4721464;30;20062;-82
2021/05/03 10:54:16;;;;;;;4.90;1.90;;;;;;;-142.70;100.00;60390.16;4715178;30;20033;-81
2021/05/03 10:56:41;;;;;;;3.88;2.30;;;;;;;-142.70;100.00;60390.16;4715579;30;20515;-81
2021/05/03 10:59:08;;;;;;;5.65;2.67;;;;;;;-142.70;100.00;60390.16;4708871;30;20037;-81
2021/05/03 11:02:10;;;;;;;3.10;2.25;;;;;;;-142.70;100.00;60390.16;4698195;30;20061;-80
2021/05/03 11:04:38;;;;;;;5.35;2.30;;;;;;;-142.70;100.00;60390.16;4675122;30;20555;-80
2021/05/03 11:07:04;;;;;;;3.92;2.50;;;;;;;-142.70;100.00;60390.16;4706534;30;20139;-82
2021/05/03 11:09:41;;;;;;;4.88;4.25;;;;;;;-142.70;100.00;60390.16;4693126;30;20041;-81
2021/05/03 11:12:06;;;;;;;5.32;2.92;;;;;;;-142.70;100.00;60390.16;4698001;30;20036;-80
2021/05/03 11:14:42;;;;;;;7.13;4.60;;;;;;;-142.70;100.00;60390.16;4717964;30;20145;-83
2021/05/03 11:17:14;;;;;;;4.30;2.60;;;;;;;-142.70;100.00;60390.16;4677549;30;20131;-80
2021/05/03 11:22:23;;;;;;;3.33;2.40;;;;;;;-142.70;100.00;60390.16;4722981;30;20087;-82
2021/05/03 11:25:05;;;;;;;3.95;2.38;;;;;;;-142.70;100.00;60390.16;4701400;30;20036;-80
2021/05/03 11:30:49;;;;;;;3.15;2.00;;;;;;;-142.70;100.00;60390.16;4663091;30;20082;-81
2021/05/03 11:33:19;;;;;;;4.85;1.88;;;;;;;-142.70;100.00;60390.16;4696654;30;20441;-82
2021/05/03 11:36:04;;;;;;;2.47;2.08;;;;;;;-142.70;100.00;60390.16;4702698;30;20043;-80
2021/05/03 11:38:47;;;;;;;3.13;1.40;;;;;;;-142.70;100.00;60390.16;4714755;30;20119;-81
2021/05/03 11:46:44;;;;;;;1.77;1.10;;;;;;;-142.70;100.00;60390.16;4698385;30;20090;-81
2021/05/03 11:49:09;;;;;;;3.75;1.55;;;;;;;-142.70;100.00;60390.16;4688060;30;20040;-82
2021/05/03 11:51:48;;;;;;;3.45;1.30;;;;;;;-142.70;100.00;60390.16;4709817;30;20032;-83
2021/05/03 11:54:33;;;;;;;2.88;1.20;;;;;;;-142.70;100.00;60390.16;4718995;30;20033;-82
2021/05/03 11:57:01;;;;;;;1.60;1.13;;;;;;;-142.70;100.00;60390.16;4694323;30;20140;-80
2021/05/03 11:59:26;;;;;;;5.25;2.30;;;;;;;-142.70;100.00;60390.16;4676449;30;20126;-82
2021/05/03 12:02:00;;;;;;;6.70;2.28;;;;;;;-142.70;100.00;60390.16;4688001;30;20084;-81
2021/05/03 12:04:36;;;;;;;6.68;2.97;;;;;;;-142.70;100.00;60390.16;4677727;30;20142;-81
2021/05/03 12:07:23;;;;;;;7.03;2.53;;;;;;;-142.70;100.00;60390.16;4669315;30;20563;-82
2021/05/03 12:10:11;;;;;;;3.55;1.98;;;;;;;-142.70;100.00;60390.16;4713514;30;20029;-79
2021/05/03 12:12:43;;;;;;;8.13;1.90;;;;;;;-142.70;100.00;60390.16;4725866;30;20590;-81
2021/05/03 12:15:22;;;;;;;3.72;1.70;;;;;;;-142.70;100.00;60390.16;4700490;30;20291;-80
2021/05/03 12:17:48;;;;;;;5.50;2.10;;;;;;;-142.70;100.00;60390.16;4712677;30;20039;-80
2021/05/03 12:20:20;;;;;;;4.38;1.73;;;;;;;-142.70;100.00;60390.16;4697440;30;20083;-81
2021/05/03 12:23:01;;;;;;;3.50;1.70;;;;;;;-142.70;100.00;60390.16;4711005;30;20039;-81
2021/05/03 12:25:27;;;;;;;4.00;1.88;;;;;;;-142.70;100.00;60390.16;4691788;30;20040;-80
2021/05/03 12:27:53;;;;;;;4.20;1.80;;;;;;;-142.70;100.00;60390.16;4681932;30;20045;-81
2021/05/03 12:30:19;;;;;;;3.60;2.10;;;;;;;-142.70;100.00;60390.16;4687896;30;20044;-79
2021/05/03 12:32:45;;;;;;;4.07;1.60;;;;;;;-142.70;100.00;60390.16;4699836;30;20033;-80
2021/05/03 12:35:15;;;;;;;3.85;1.42;;;;;;;-142.70;100.00;60390.16;4696975;30;20036;-81
2021/05/03 12:37:41;;;;;;;3.33;1.58;;;;;;;-142.70;100.00;60390.16;4679248;30;20119;-81
2021/05/03 12:40:14;;;;;;;3.17;1.13;;;;;;;-142.70;100.00;60390.16;4697316;30;20127;-82
2021/05/03 12:42:49;;;;;;;4.30;2.13;;;;;;;-142.70;100.00;60390.16;4681239;30;20551;-81
2021/05/03 12:50:44;;;;;;;;;;;;;;;-142.70;100.00;60390.16;4719988;30;20025;-82
2021/05/03 13:03:46;;;;;;;3.33;1.50;;;;;;;-142.70;100.00;60390.16;4723293;30;20032;-84
2021/05/03 13:08:53;;;;;;;3.33;1.35;;;;;;;-142.70;100.00;60390.16;4715118;30;20032;-81
2021/05/03 13:29:11;;;;;;;4.78;0.90;;;;;;;-142.70;100.00;60390.16;4732149;30;20477;-80
2021/05/03 13:31:38;;;;;;;2.15;0.82;;;;;;;-142.70;100.00;60390.16;4713939;30;20048;-79
2021/05/03 13:34:05;;;;;;;2.60;1.00;;;;;;;-142.70;100.00;60390.16;4719294;30;20040;-80
2021/05/03 13:36:30;;;;;;;2.28;1.05;;;;;;;-142.70;100.00;60390.16;4706181;30;20036;-80
2021/05/03 13:38:56;;;;;;;1.98;0.88;;;;;;;-142.70;100.00;60390.16;4718944;30;20028;-80
2021/05/03 13:41:22;;;;;;;4.63;1.20;;;;;;;-142.70;100.00;60390.16;4702804;30;20036;-80
2021/05/03 13:43:48;;;;;;;3.45;0.98;;;;;;;-142.70;100.00;60390.16;4716176;30;20416;-79
2021/05/03 13:46:13;;;;;;;5.63;1.30;;;;;;;-142.70;100.00;60390.16;4688607;30;20511;-78
2021/05/03 13:48:40;;;;;;;3.30;0.90;;;;;;;-142.70;100.00;60390.16;4716899;30;20094;-79
2021/05/03 13:51:07;;;;;;;2.53;1.25;;;;;;;-142.70;100.00;60390.16;4716548;30;20121;-80
2021/05/03 13:53:33;;;;;;;4.97;1.00;;;;;;;-142.70;100.00;60390.16;4710147;30;20032;-79
2021/05/03 13:55:59;;;;;;;3.28;1.20;;;;;;;-142.70;100.00;60390.16;4718876;30;20040;-79
2021/05/03 13:58:24;;;;;;;4.50;0.93;;;;;;;-142.70;100.00;60390.16;4705573;30;20047;-81
2021/05/03 14:00:50;;;;;;;3.83;1.30;;;;;;;-142.70;100.00;60390.16;4717768;30;20064;-80
2021/05/03 14:03:15;;;;;;;1.75;0.90;;;;;;;-142.70;100.00;60390.16;4720369;30;20036;-79
2021/05/03 14:05:41;;;;;;;2.15;1.33;;;;;;;-142.70;100.00;60390.16;4704262;30;20040;-79
2021/05/03 14:08:11;;;;;;;3.08;1.48;;;;;;;-142.70;100.00;60390.16;4733995;30;20032;-80
2021/05/03 14:10:36;;;;;;;3.08;1.10;;;;;;;-142.70;100.00;60390.16;4705489;30;20106;-80
2021/05/03 14:13:04;;;;;;;6.10;1.20;;;;;;;-142.70;100.00;60390.16;4732721;30;20036;-80
2021/05/03 14:15:32;;;;;;;1.38;0.85;;;;;;;-142.70;100.00;60390.16;4702482;30;20037;-78
2021/05/03 14:17:57;;;;;;;5.32;1.02;;;;;;;-142.70;100.00;60390.16;4700914;30;20561;-84
2021/05/03 14:20:23;;;;;;;1.10;0.80;;;;;;;-142.70;100.00;60390.16;4715771;30;20068;-80
2021/05/03 14:22:49;;;;;;;9.95;5.20;;;;;;;-142.70;100.00;60390.16;4715766;30;20427;-79
2021/05/03 14:25:15;;;;;;;2.70;1.58;;;;;;;-142.70;100.00;60390.16;4706730;30;20076;-80
2021/05/03 14:27:44;;;;;;;5.03;1.38;;;;;;;-142.70;100.00;60390.16;4704004;30;20036;-82
2021/05/03 14:30:17;;;;;;;2.60;1.00;;;;;;;-142.70;100.00;60390.16;4732581;30;20035;-83
2021/05/03 14:33:12;;;;;;;8.32;1.20;;;;;;;-142.70;100.00;60390.16;4721321;30;20036;-78
2021/05/03 14:35:38;;;;;;;4.72;1.33;;;;;;;-142.70;100.00;60390.16;4725424;30;20097;-83
2021/05/03 14:38:03;;;;;;;3.75;1.52;;;;;;;-142.70;100.00;60390.16;4704453;30;20040;-81
2021/05/03 14:40:29;;;;;;;1.83;1.25;;;;;;;-142.70;100.00;60390.16;4700669;30;20032;-82
2021/05/03 14:42:58;;;;;;;1.98;1.00;;;;;;;-142.70;100.00;60390.16;4726859;30;20524;-81
2021/05/03 14:45:24;;;;;;;2.95;1.13;;;;;;;-142.70;100.00;60390.16;4716046;30;20037;-79
2021/05/03 14:48:04;;;;;;;3.17;0.98;;;;;;;-142.70;100.00;60390.16;4693889;30;20037;-81
2021/05/03 14:55:29;;;;;;;4.35;1.20;;;;;;;-142.70;100.00;60390.16;4716267;30;20179;-79
2021/05/03 14:57:55;;;;;;;4.05;1.30;;;;;;;-142.70;100.00;60390.16;4721741;30;20040;-78
2021/05/03 15:00:21;;;;;;;6.93;1.73;;;;;;;-142.70;100.00;60390.16;4721601;30;20036;-81
2021/05/03 15:02:46;;;;;;;3.20;1.10;;;;;;;-142.70;100.00;60390.16;4702952;30;20136;-81
2021/05/03 15:05:12;;;;;;;3.58;1.38;;;;;;;-142.70;100.00;60390.16;4697045;30;20166;-77
2021/05/03 15:07:39;;;;;;;2.70;1.13;;;;;;;-142.70;100.00;60390.16;4716626;30;20041;-79
2021/05/03 15:10:06;;;;;;;2.45;1.30;;;;;;;-142.70;100.00;60390.16;4690309;30;20563;-78
2021/05/03 15:12:35;;;;;;;2.53;1.60;;;;;;;-142.70;100.00;60390.16;4686987;30;20048;-81
2021/05/03 15:22:45;;;;;;;5.57;1.75;;;;;;;-142.70;100.00;60390.16;4689710;30;20492;-80
2021/05/03 15:25:12;;;;;;;8.98;1.75;;;;;;;-142.70;100.00;60390.16;4697937;30;20375;-81
2021/05/03 15:35:34;;;;;;;5.10;1.67;;;;;;;-142.70;100.00;60390.16;4696151;30;20065;-81
2021/05/03 15:38:03;;;;;;;1.45;1.20;;;;;;;-142.70;100.00;60390.16;4698335;30;20091;-80
2021/05/03 15:40:32;;;;;;;3.57;1.37;;;;;;;-142.70;100.00;60390.16;4682992;30;20083;-80
2021/05/03 15:42:57;;;;;;;1.67;1.52;;;;;;;-142.70;100.00;60390.16;4697836;30;20041;-81
2021/05/03 15:45:23;;;;;;;3.05;1.35;;;;;;;-142.70;100.00;60390.16;4682514;30;20397;-78
2021/05/03 15:47:48;;;;;;;4.47;1.50;;;;;;;-142.70;100.00;60390.16;4694980;30;20483;-78
2021/05/03 15:50:14;;;;;;;8.98;1.80;;;;;;;-142.70;100.00;60390.16;4711536;30;20120;-78
2021/05/03 15:52:40;;;;;;;6.28;1.88;;;;;;;-142.70;100.00;60390.16;4680520;30;20052;-81
2021/05/03 15:55:07;;;;;;;3.42;1.45;;;;;;;-142.70;100.00;60390.16;4697307;30;20057;-79
2021/05/03 15:57:33;;;;;;;2.03;1.83;;;;;;;-142.70;100.00;60390.16;4681217;30;20104;-83
2021/05/03 15:59:58;;;;;;;9.60;1.77;;;;;;;-142.70;100.00;60390.16;4683578;30;20048;-78
2021/05/03 16:02:24;;;;;;;2.10;1.38;;;;;;;-142.70;100.00;60390.16;4710004;30;20053;-80
2021/05/03 16:04:49;;;;;;;2.97;1.67;;;;;;;-142.70;100.00;60390.16;4700086;30;20040;-81
2021/05/03 16:07:15;;;;;;;14.43;1.98;;;;;;;-142.70;100.00;60390.16;4685543;30;20036;-80
2021/05/03 16:09:40;;;;;;;1.92;1.73;;;;;;;-142.70;100.00;60390.16;4713943;30;20048;-81
2021/05/03 16:12:06;;;;;;;2.95;1.45;;;;;;;-142.70;100.00;60390.16;4700574;30;20033;-80
2021/05/03 16:14:31;;;;;;;6.10;1.60;;;;;;;-142.70;100.00;60390.16;4713201;30;20040;-81
2021/05/03 16:16:57;;;;;;;1.67;1.58;;;;;;;-142.70;100.00;60390.16;4700034;30;20052;-81
2021/05/03 16:19:22;;;;;;;3.42;1.60;;;;;;;-142.70;100.00;60390.16;4713584;30;20038;-81
2021/05/03 16:21:48;;;;;;;2.25;2.00;;;;;;;-142.70;100.00;60390.16;4700074;30;20037;-80
2021/05/03 16:24:13;;;;;;;2.83;1.75;;;;;;;-142.70;100.00;60390.16;4685386;30;20033;-81
2021/05/03 16:26:39;;;;;;;2.03;1.70;;;;;;;-142.70;100.00;60390.16;4685230;30;20037;-81
2021/05/03 16:29:04;;;;;;;4.60;1.95;;;;;;;-142.70;100.00;60390.16;4714916;30;20040;-81
2021/05/03 16:31:30;;;;;;;3.80;2.00;;;;;;;-142.70;100.00;60390.16;4683858;30;20044;-80
2021/05/03 16:33:55;;;;;;;10.50;2.38;;;;;;;-142.70;100.00;60390.16;4706419;30;20039;-82
2021/05/03 16:36:21;;;;;;;3.05;2.00;;;;;;;-142.70;100.00;60390.16;4695240;30;20419;-79
2021/05/03 16:38:46;;;;;;;1.45;1.35;;;;;;;-142.70;100.00;60390.16;4717050;30;20113;-79
2021/05/03 16:41:12;;;;;;;13.50;2.28;;;;;;;-142.70;100.00;60390.16;4714299;30;20050;-80
2021/05/03 16:43:38;;;;;;;2.63;1.77;;;;;;;-142.70;100.00;60390.16;4709360;30;20037;-80
2021/05/03 16:46:07;;;;;;;2.22;1.73;;;;;;;-142.70;100.00;60390.16;4712976;30;20472;-78
2021/05/03 16:48:33;;;;;;;2.38;1.58;;;;;;;-142.70;100.00;60390.16;4698094;30;20408;-79
2021/05/03 16:50:59;;;;;;;8.40;2.03;;;;;;;-142.70;100.00;60390.16;4685187;30;20489;-79
2021/05/03 16:53:24;;;;;;;2.78;2.35;;;;;;;-142.70;100.00;60390.16;4712108;30;20033;-79
2021/05/03 16:55:50;;;;;;;3.75;1.70;;;;;;;-142.70;100.00;60390.16;4699254;30;20420;-80
2021/05/03 16:58:17;;;;;;;13.77;1.95;;;;;;;-142.70;100.00;60390.16;4682636;30;20723;-80
2021/05/03 17:00:42;;;;;;;3.35;1.65;;;;;;;-142.70;100.00;60390.16;4699148;30;20037;-80
2021/05/03 17:03:08;;;;;;;4.97;1.60;;;;;;;-142.70;100.00;60390.16;4698830;30;20055;-79
2021/05/03 17:05:34;;;;;;;4.75;2.03;;;;;;;-142.70;100.00;60390.16;4683927;30;20048;-77
2021/05/03 17:07:59;;;;;;;3.42;1.80;;;;;;;-142.70;100.00;60390.16;4713429;30;20044;-80
2021/05/03 17:10:28;;;;;;;4.93;1.98;;;;;;;-142.70;100.00;60390.16;4683270;30;20090;-80
2021/05/03 17:12:53;;;;;;;8.38;1.85;;;;;;;-142.70;100.00;60390.16;4699655;30;20056;-79
2021/05/03 17:15:19;;;;;;;5.38;2.00;;;;;;;-142.70;100.00;60390.16;4683886;30;20112;-80
2021/05/03 17:17:44;;;;;;;3.90;2.20;;;;;;;-142.70;100.00;60390.16;4697430;30;20079;-81
2021/05/03 17:20:10;;;;;;;2.38;2.15;;;;;;;-142.70;100.00;60390.16;4706191;30;20497;-82
2021/05/03 17:22:36;;;;;;;3.65;1.90;;;;;;;-142.70;100.00;60390.16;4706144;30;20036;-80
2021/05/03 17:25:03;;;;;;;2.53;2.13;;;;;;;-142.70;100.00;60390.16;4722012;30;20115;-80
2021/05/03 17:27:28;;;;;;;2.95;2.10;;;;;;;-142.70;100.00;60390.16;4708650;30;20036;-77
2021/05/03 17:29:54;;;;;;;4.32;2.05;;;;;;;-142.70;100.00;60390.16;4721120;30;20414;-79